Time;durP1;ratioP1;P1;durP2;ratioP2;P2;SDS_P1;SDS_P2;PMS_P1;PMS_P2;Temp;Humidity;BMP_temperature;BMP_pressure;BME280_temperature;BME280_humidity;BME280_pressure;Samples;Min_cycle;Max_cycle;Signal;HPM_P1;HPM_P2
2021/06/25 00:00:56;;;;;;;1.17;1.00;;;20.10;68.20;;;;;;5113528;28;20052;-46
2021/06/25 00:03:22;;;;;;;1.30;1.20;;;20.10;68.30;;;;;;5113191;28;20044;-49
2021/06/25 00:05:47;;;;;;;1.23;1.13;;;20.10;68.30;;;;;;5113219;28;20058;-45
2021/06/25 00:08:13;;;;;;;1.00;0.90;;;20.10;68.20;;;;;;5113420;28;20449;-46
2021/06/25 00:10:39;;;;;;;1.15;1.05;;;20.10;68.30;;;;;;5113110;28;20051;-48
2021/06/25 00:13:04;;;;;;;1.20;1.10;;;20.10;68.30;;;;;;5113754;28;20059;-51
2021/06/25 00:15:30;;;;;;;1.35;1.23;;;20.00;68.20;;;;;;5113773;28;20040;-50
2021/06/25 00:17:58;;;;;;;0.90;0.90;;;20.10;68.30;;;;;;5112850;28;20043;-46
2021/06/25 00:20:26;;;;;;;0.98;0.98;;;20.10;68.30;;;;;;5113508;28;20054;-44
2021/06/25 00:22:52;;;;;;;1.25;1.15;;;20.00;68.30;;;;;;5113619;28;20052;-47
2021/06/25 00:25:18;;;;;;;1.15;1.08;;;20.00;68.30;;;;;;5113357;28;20047;-48
2021/06/25 00:27:44;;;;;;;1.10;1.00;;;20.00;68.30;;;;;;5112584;28;20050;-51
2021/06/25 00:30:11;;;;;;;1.15;1.05;;;20.10;68.40;;;;;;5113252;28;20046;-46
2021/06/25 00:32:37;;;;;;;1.20;1.10;;;20.00;68.30;;;;;;5112776;28;20055;-47
2021/06/25 00:35:03;;;;;;;1.10;1.00;;;20.10;68.40;;;;;;5112952;28;20437;-47
2021/06/25 00:37:29;;;;;;;1.08;1.00;;;20.00;68.30;;;;;;5113163;28;20070;-47
2021/06/25 00:39:55;;;;;;;1.20;1.10;;;20.00;68.30;;;;;;5112589;28;20456;-44
2021/06/25 00:42:21;;;;;;;1.33;1.10;;;20.00;68.40;;;;;;5112815;28;20410;-45
2021/06/25 00:44:47;;;;;;;2.17;1.13;;;20.00;68.30;;;;;;5112924;28;20104;-45
2021/06/25 00:47:13;;;;;;;1.08;1.00;;;20.00;68.30;;;;;;5113136;28;20152;-46
2021/06/25 00:49:39;;;;;;;1.13;1.02;;;20.00;69.00;;;;;;5112171;28;20118;-47
2021/06/25 00:52:13;;;;;;;2.50;1.30;;;20.00;68.40;;;;;;5113127;28;20094;-47
2021/06/25 00:54:38;;;;;;;1.08;1.00;;;20.00;68.40;;;;;;5112745;28;20044;-47
2021/06/25 00:57:04;;;;;;;1.48;1.17;;;20.00;68.40;;;;;;5112801;28;20055;-44
2021/06/25 00:59:32;;;;;;;1.30;1.20;;;20.00;68.40;;;;;;5112894;28;20445;-46
2021/06/25 01:01:58;;;;;;;1.02;1.02;;;20.00;68.40;;;;;;5112408;28;20417;-47
2021/06/25 01:04:24;;;;;;;1.20;1.08;;;20.00;68.40;;;;;;5112425;28;20074;-49
2021/06/25 01:06:50;;;;;;;1.30;1.20;;;20.00;68.40;;;;;;5113066;28;20051;-41
2021/06/25 01:09:19;;;;;;;1.40;1.30;;;20.00;68.40;;;;;;5112515;28;20051;-45
2021/06/25 01:11:45;;;;;;;1.23;1.13;;;20.00;68.40;;;;;;5112646;28;20071;-39
2021/06/25 01:14:11;;;;;;;1.30;1.08;;;20.00;68.50;;;;;;5112962;28;20035;-39
2021/06/25 01:16:37;;;;;;;1.13;1.08;;;20.00;68.50;;;;;;5113136;28;20100;-39
2021/06/25 01:19:12;;;;;;;1.20;1.10;;;20.00;68.50;;;;;;5113119;28;20051;-47
2021/06/25 01:21:38;;;;;;;0.90;0.90;;;20.00;68.50;;;;;;5112049;28;20043;-45
2021/06/25 01:24:04;;;;;;;1.20;1.10;;;20.00;68.50;;;;;;5112824;28;20357;-36
2021/06/25 01:26:29;;;;;;;1.27;1.17;;;19.90;68.50;;;;;;5112658;28;20400;-48
2021/06/25 01:28:55;;;;;;;1.20;1.10;;;20.00;68.50;;;;;;5112948;28;20081;-45
2021/06/25 01:31:21;;;;;;;1.00;1.00;;;20.00;68.50;;;;;;5112052;28;20036;-39
2021/06/25 01:33:48;;;;;;;1.30;1.20;;;19.90;68.50;;;;;;5112599;28;20036;-46
2021/06/25 01:36:14;;;;;;;1.08;1.08;;;19.90;68.50;;;;;;5112451;28;20054;-46
2021/06/25 01:38:41;;;;;;;1.05;1.02;;;20.00;68.60;;;;;;5113775;28;20472;-45
2021/06/25 01:41:07;;;;;;;1.42;1.20;;;19.90;68.50;;;;;;5116282;28;20055;-45
2021/06/25 01:43:36;;;;;;;1.27;1.17;;;19.90;68.50;;;;;;5116205;28;20475;-44
2021/06/25 01:46:02;;;;;;;1.15;1.05;;;19.90;68.50;;;;;;5116829;28;20048;-47
2021/06/25 01:48:28;;;;;;;1.40;1.30;;;19.90;68.60;;;;;;5116603;28;20412;-47
2021/06/25 01:50:54;;;;;;;1.88;1.23;;;19.90;68.60;;;;;;5116129;28;20055;-46
2021/06/25 01:53:20;;;;;;;1.08;1.00;;;19.90;68.60;;;;;;5115986;28;20449;-42
2021/06/25 01:55:47;;;;;;;1.30;1.20;;;19.90;68.60;;;;;;5115809;28;20062;-46
2021/06/25 01:58:23;;;;;;;1.27;1.02;;;19.90;68.60;;;;;;5115914;28;20052;-46
2021/06/25 02:01:17;;;;;;;0.80;0.80;;;19.90;69.30;;;;;;5115996;28;20105;-45
2021/06/25 02:03:44;;;;;;;1.00;1.00;;;19.90;68.50;;;;;;5106913;28;20051;-44
2021/06/25 02:06:11;;;;;;;1.35;1.25;;;19.90;68.60;;;;;;5115910;28;20051;-41
2021/06/25 02:08:40;;;;;;;1.67;1.50;;;19.90;68.70;;;;;;5115561;28;20047;-46
2021/06/25 02:11:10;;;;;;;1.10;1.00;;;19.90;69.30;;;;;;5115756;28;20035;-47
2021/06/25 02:13:37;;;;;;;1.20;1.10;;;19.90;68.70;;;;;;5115704;28;20044;-47
2021/06/25 02:16:03;;;;;;;1.25;1.10;;;19.90;68.70;;;;;;5116096;28;20051;-47
2021/06/25 02:18:29;;;;;;;1.20;1.10;;;19.90;68.70;;;;;;5115829;28;20192;-42
2021/06/25 02:20:54;;;;;;;1.38;1.27;;;19.80;68.60;;;;;;5115997;28;20055;-46
2021/06/25 02:23:20;;;;;;;1.17;1.08;;;19.90;69.30;;;;;;5115150;28;20108;-45
2021/06/25 02:25:46;;;;;;;0.85;0.85;;;19.90;68.70;;;;;;5115995;28;20047;-46
2021/06/25 02:28:12;;;;;;;1.20;1.17;;;19.90;68.70;;;;;;5115302;28;20098;-43
2021/06/25 02:30:37;;;;;;;0.98;0.98;;;19.80;68.60;;;;;;5115686;28;20044;-46
2021/06/25 02:33:04;;;;;;;1.38;1.27;;;19.90;68.70;;;;;;5115391;28;20071;-38
2021/06/25 02:35:30;;;;;;;1.40;1.20;;;19.90;68.70;;;;;;5115223;28;20047;-41
2021/06/25 02:37:56;;;;;;;1.02;0.98;;;19.80;68.70;;;;;;5114876;28;20078;-43
2021/06/25 02:40:22;;;;;;;1.30;1.20;;;19.90;68.80;;;;;;5115248;28;20043;-48
2021/06/25 02:42:48;;;;;;;1.42;1.13;;;19.90;68.70;;;;;;5115197;28;20124;-40
2021/06/25 02:45:15;;;;;;;1.27;1.17;;;19.90;68.80;;;;;;5115245;28;20096;-48
2021/06/25 02:47:41;;;;;;;1.10;1.10;;;19.80;68.80;;;;;;5115312;28;20051;-42
2021/06/25 02:50:08;;;;;;;1.23;1.13;;;19.80;68.80;;;;;;5114299;28;20051;-47
2021/06/25 02:52:37;;;;;;;1.65;1.27;;;19.80;68.80;;;;;;5115076;28;20391;-44
2021/06/25 02:55:04;;;;;;;1.00;1.00;;;19.80;68.80;;;;;;5113993;28;20035;-40
2021/06/25 02:57:30;;;;;;;1.15;1.02;;;19.80;68.80;;;;;;5113945;28;20101;-48
2021/06/25 02:59:56;;;;;;;1.45;1.30;;;19.80;68.80;;;;;;5114268;28;20050;-44
2021/06/25 03:02:22;;;;;;;1.20;1.10;;;19.80;68.80;;;;;;5113450;28;20044;-46
2021/06/25 03:04:48;;;;;;;1.27;1.17;;;19.80;68.80;;;;;;5114222;28;20088;-50
2021/06/25 03:07:13;;;;;;;1.17;1.08;;;19.80;68.80;;;;;;5113453;28;20047;-46
2021/06/25 03:09:39;;;;;;;1.15;1.05;;;19.90;68.90;;;;;;5114129;28;20399;-49
2021/06/25 03:12:05;;;;;;;1.30;1.20;;;19.80;68.80;;;;;;5115139;28;20073;-49
2021/06/25 03:14:31;;;;;;;1.00;1.00;;;19.80;68.90;;;;;;5114742;28;20115;-47
2021/06/25 03:16:57;;;;;;;1.10;1.00;;;19.80;68.80;;;;;;5114723;28;20090;-46
2021/06/25 03:19:22;;;;;;;1.30;1.20;;;19.80;68.90;;;;;;5114812;28;20511;-48
2021/06/25 03:21:49;;;;;;;1.10;1.10;;;19.80;68.80;;;;;;5114450;28;20044;-50
2021/06/25 03:24:15;;;;;;;1.85;1.23;;;19.80;68.90;;;;;;5114893;28;20116;-50
2021/06/25 03:26:40;;;;;;;1.23;1.13;;;19.80;68.90;;;;;;5114220;28;20465;-50
2021/06/25 03:29:06;;;;;;;1.20;1.10;;;19.80;68.90;;;;;;5114610;28;20445;-48
2021/06/25 03:31:33;;;;;;;1.30;1.20;;;19.80;68.90;;;;;;5114748;28;20044;-48
2021/06/25 03:33:59;;;;;;;1.08;1.08;;;19.80;68.90;;;;;;5114990;28;20050;-46
2021/06/25 03:36:25;;;;;;;1.23;1.13;;;19.80;68.90;;;;;;5114349;28;20051;-46
2021/06/25 03:38:51;;;;;;;1.38;1.27;;;19.80;68.90;;;;;;5114157;28;20437;-44
2021/06/25 03:41:16;;;;;;;1.40;1.30;;;19.80;68.90;;;;;;5113937;28;20044;-44
2021/06/25 03:43:42;;;;;;;1.50;1.40;;;19.80;68.90;;;;;;5114398;28;20040;-44
2021/06/25 03:46:09;;;;;;;1.17;1.08;;;19.80;68.90;;;;;;5114116;28;20048;-45
2021/06/25 03:48:34;;;;;;;1.58;1.48;;;19.70;68.90;;;;;;5114081;28;20047;-44
2021/06/25 03:51:00;;;;;;;1.40;1.30;;;19.80;69.00;;;;;;5114057;28;20476;-45
2021/06/25 03:53:27;;;;;;;1.27;1.10;;;19.70;68.90;;;;;;5114087;28;20063;-41
2021/06/25 03:56:11;;;;;;;1.20;1.10;;;19.70;68.90;;;;;;5114100;28;20043;-45
2021/06/25 03:58:49;;;;;;;1.23;1.13;;;19.80;69.00;;;;;;5113078;28;20419;-47
2021/06/25 04:01:16;;;;;;;1.20;1.10;;;19.80;69.00;;;;;;5112064;28;20040;-42
2021/06/25 04:03:42;;;;;;;1.40;1.30;;;19.70;68.90;;;;;;5113555;28;20048;-44
2021/06/25 04:06:08;;;;;;;1.10;1.05;;;19.80;69.00;;;;;;5113878;28;20536;-45
2021/06/25 04:08:35;;;;;;;1.30;1.20;;;19.70;68.90;;;;;;5113657;28;20479;-47
2021/06/25 04:11:03;;;;;;;2.17;1.40;;;19.70;69.00;;;;;;5113532;28;20096;-47
2021/06/25 04:13:29;;;;;;;1.30;1.20;;;19.70;69.00;;;;;;5113461;28;20054;-44
2021/06/25 04:15:55;;;;;;;1.70;1.60;;;19.70;69.00;;;;;;5113354;28;20121;-45
2021/06/25 04:18:22;;;;;;;1.40;1.30;;;19.70;69.00;;;;;;5113423;28;20086;-45
2021/06/25 04:20:49;;;;;;;1.30;1.20;;;19.70;69.00;;;;;;5112842;28;20050;-43
2021/06/25 04:23:14;;;;;;;1.30;1.20;;;19.70;69.00;;;;;;5113697;28;20051;-43
2021/06/25 04:25:40;;;;;;;1.25;1.23;;;19.70;69.00;;;;;;5094817;28;20054;-45
2021/06/25 04:28:07;;;;;;;1.13;1.02;;;19.70;69.00;;;;;;5113130;28;20096;-45
2021/06/25 04:30:34;;;;;;;1.50;1.40;;;19.70;69.70;;;;;;5113074;28;20040;-49
2021/06/25 04:33:01;;;;;;;1.60;1.50;;;19.70;69.00;;;;;;5112599;28;20054;-43
2021/06/25 04:35:28;;;;;;;1.40;1.30;;;19.80;69.10;;;;;;5113333;28;20087;-44
2021/06/25 04:37:53;;;;;;;1.48;1.38;;;19.70;69.00;;;;;;5113425;28;20436;-41
2021/06/25 04:40:19;;;;;;;1.40;1.30;;;19.70;69.00;;;;;;5093077;28;20117;-45
2021/06/25 04:42:46;;;;;;;1.20;1.10;;;19.70;69.00;;;;;;5109856;28;20176;-43
2021/06/25 04:45:12;;;;;;;1.30;1.17;;;19.70;69.00;;;;;;5112365;28;20039;-45
2021/06/25 04:47:44;;;;;;;1.00;1.00;;;19.70;69.00;;;;;;5113009;28;20039;-46
2021/06/25 04:50:10;;;;;;;1.50;1.38;;;19.70;69.00;;;;;;5112274;28;20108;-40
2021/06/25 04:52:36;;;;;;;1.30;1.20;;;19.70;69.00;;;;;;5113050;28;20046;-46
2021/06/25 04:55:03;;;;;;;0.85;0.85;;;19.70;69.00;;;;;;5112926;28;20044;-49
2021/06/25 04:57:29;;;;;;;1.33;1.23;;;19.70;69.10;;;;;;5112686;28;20184;-50
2021/06/25 04:59:54;;;;;;;1.10;1.10;;;19.70;69.00;;;;;;5112564;28;20513;-43
2021/06/25 05:02:20;;;;;;;1.48;1.38;;;19.70;69.00;;;;;;5112577;28;20093;-44
2021/06/25 05:04:46;;;;;;;1.25;1.15;;;19.70;69.00;;;;;;5111922;28;20474;-47
2021/06/25 05:07:12;;;;;;;1.15;1.15;;;19.70;69.00;;;;;;5112759;28;20475;-45
2021/06/25 05:09:37;;;;;;;1.45;1.23;;;19.60;69.00;;;;;;5112738;28;20074;-48
2021/06/25 05:12:03;;;;;;;1.35;1.25;;;19.70;69.10;;;;;;5112619;28;20541;-47
2021/06/25 05:14:40;;;;;;;1.30;1.20;;;19.70;69.00;;;;;;5112128;28;20050;-46
2021/06/25 05:17:06;;;;;;;1.35;1.25;;;19.70;69.10;;;;;;5112195;28;20043;-49
2021/06/25 05:19:32;;;;;;;1.33;1.23;;;19.70;69.10;;;;;;5112735;28;20043;-50
2021/06/25 05:21:58;;;;;;;1.77;1.40;;;19.60;69.00;;;;;;5112203;28;20035;-47
2021/06/25 05:24:29;;;;;;;1.25;1.15;;;19.70;69.10;;;;;;5112370;28;20476;-46
2021/06/25 05:26:55;;;;;;;1.40;1.30;;;19.70;69.10;;;;;;5112626;28;20069;-46
2021/06/25 05:29:21;;;;;;;1.10;1.05;;;19.60;69.10;;;;;;5112434;28;20039;-43
2021/06/25 05:31:46;;;;;;;1.40;1.30;;;19.70;69.10;;;;;;5112200;28;20050;-50
2021/06/25 05:34:12;;;;;;;1.20;1.10;;;19.70;69.10;;;;;;5111954;28;20048;-43
2021/06/25 05:36:38;;;;;;;1.45;1.35;;;19.70;69.10;;;;;;5112164;28;20054;-45
2021/06/25 05:39:04;;;;;;;1.75;1.55;;;19.70;69.20;;;;;;5112830;28;20202;-47
2021/06/25 05:41:30;;;;;;;1.20;1.10;;;19.60;69.10;;;;;;5112498;28;20051;-43
2021/06/25 05:43:55;;;;;;;1.40;1.30;;;19.70;69.10;;;;;;5112197;28;20472;-44
2021/06/25 05:46:21;;;;;;;1.45;1.35;;;19.60;69.10;;;;;;5093866;28;20499;-47
2021/06/25 05:48:47;;;;;;;1.27;1.17;;;19.70;69.10;;;;;;5112391;28;20384;-48
2021/06/25 05:51:13;;;;;;;1.40;1.30;;;19.70;69.20;;;;;;5111845;28;20039;-47
2021/06/25 05:53:38;;;;;;;1.20;1.10;;;19.70;69.20;;;;;;5111896;28;20093;-42
2021/06/25 05:56:06;;;;;;;1.23;1.13;;;19.70;69.20;;;;;;5111952;28;20054;-44
2021/06/25 05:58:32;;;;;;;1.20;1.10;;;19.70;69.20;;;;;;5112057;28;20082;-45
2021/06/25 06:00:58;;;;;;;1.20;1.13;;;19.70;69.20;;;;;;5112338;28;20044;-46
2021/06/25 06:03:23;;;;;;;1.45;1.35;;;19.60;69.10;;;;;;5111573;28;20051;-44
2021/06/25 06:05:49;;;;;;;1.60;1.50;;;19.60;69.20;;;;;;5112184;28;20058;-43
2021/06/25 06:08:15;;;;;;;1.30;1.20;;;19.70;69.10;;;;;;5111823;28;20090;-47
2021/06/25 06:10:40;;;;;;;1.75;1.52;;;19.70;69.10;;;;;;5112319;28;20479;-46
2021/06/25 06:13:06;;;;;;;1.45;1.35;;;19.60;69.10;;;;;;5111888;28;20050;-45
2021/06/25 06:15:32;;;;;;;1.30;1.20;;;19.70;69.10;;;;;;5111887;28;20051;-45
2021/06/25 06:17:58;;;;;;;1.30;1.20;;;19.70;69.20;;;;;;5111391;28;20131;-46
2021/06/25 06:20:27;;;;;;;1.30;1.20;;;19.60;69.10;;;;;;5111522;28;20119;-43
2021/06/25 06:33:41;;;;;;;1.05;1.02;;;19.70;69.10;;;;;;5114637;28;20533;-44
2021/06/25 06:36:39;;;;;;;1.33;1.23;;;19.60;69.00;;;;;;5115172;28;20086;-44
2021/06/25 06:39:06;;;;;;;1.55;1.40;;;19.60;69.00;;;;;;5115153;28;20122;-47
2021/06/25 06:41:34;;;;;;;1.10;1.00;;;19.60;69.00;;;;;;5115314;28;20055;-42
2021/06/25 06:44:00;;;;;;;1.13;0.90;;;19.70;69.00;;;;;;5115315;28;20039;-42
2021/06/25 06:46:26;;;;;;;1.38;1.17;;;19.60;69.00;;;;;;5114881;28;20050;-43
2021/06/25 06:48:53;;;;;;;1.10;1.00;;;19.70;69.00;;;;;;5114579;28;20040;-45
2021/06/25 06:51:20;;;;;;;1.40;1.30;;;19.70;69.00;;;;;;5114568;28;20039;-45
2021/06/25 06:53:47;;;;;;;0.88;0.88;;;19.70;69.00;;;;;;5115225;28;20043;-44
2021/06/25 06:56:15;;;;;;;1.38;1.20;;;19.70;68.90;;;;;;5114987;28;20062;-45
2021/06/25 06:58:42;;;;;;;1.20;1.10;;;19.70;68.90;;;;;;5115077;28;20059;-44
2021/06/25 07:01:08;;;;;;;1.25;1.15;;;19.70;68.90;;;;;;5114658;28;20521;-44
2021/06/25 07:03:34;;;;;;;1.50;1.35;;;19.70;68.90;;;;;;5113845;28;20032;-42
2021/06/25 07:06:00;;;;;;;1.30;1.20;;;19.70;68.90;;;;;;5113368;28;20104;-42
2021/06/25 07:08:26;;;;;;;1.55;1.02;;;19.70;68.80;;;;;;5114868;28;20039;-43
2021/06/25 07:10:51;;;;;;;1.20;1.10;;;19.70;68.80;;;;;;5103896;28;20114;-45
2021/06/25 07:13:17;;;;;;;1.15;1.05;;;19.70;68.80;;;;;;5089998;28;20051;-42
2021/06/25 07:15:43;;;;;;;1.23;1.13;;;19.70;68.80;;;;;;5096190;28;20048;-48
2021/06/25 07:18:09;;;;;;;1.15;1.05;;;19.70;68.80;;;;;;5112758;28;20154;-45
2021/06/25 07:20:35;;;;;;;1.48;1.38;;;19.70;68.80;;;;;;5112391;28;20471;-46
2021/06/25 07:23:01;;;;;;;1.05;1.05;;;19.70;68.80;;;;;;5114588;28;20047;-45
2021/06/25 07:25:27;;;;;;;1.48;1.38;;;19.80;68.80;;;;;;5113746;28;20060;-41
2021/06/25 07:27:53;;;;;;;1.67;1.20;;;19.70;68.80;;;;;;5113863;28;20055;-44
2021/06/25 07:30:19;;;;;;;1.50;1.13;;;19.80;68.70;;;;;;5114516;28;20078;-41
2021/06/25 07:32:44;;;;;;;1.15;1.08;;;19.70;68.60;;;;;;5111365;28;20048;-41
2021/06/25 07:35:11;;;;;;;1.30;1.20;;;19.80;68.70;;;;;;5102207;28;20047;-42
2021/06/25 07:37:36;;;;;;;1.42;1.33;;;19.80;68.70;;;;;;5111347;28;20055;-43
2021/06/25 07:40:03;;;;;;;1.20;1.10;;;19.80;68.60;;;;;;5094911;28;20047;-41
2021/06/25 07:42:29;;;;;;;1.60;1.50;;;19.80;68.70;;;;;;5112015;28;20043;-43
2021/06/25 07:44:55;;;;;;;2.05;1.30;;;19.80;68.60;;;;;;5113621;28;20050;-35
2021/06/25 07:47:21;;;;;;;1.85;1.20;;;19.70;69.20;;;;;;5113304;28;20043;-45
2021/06/25 07:49:47;;;;;;;1.27;1.17;;;19.80;68.60;;;;;;5112883;28;20051;-42
2021/06/25 07:52:13;;;;;;;1.20;1.10;;;19.90;68.60;;;;;;5112065;28;20043;-42
2021/06/25 07:54:59;;;;;;;1.48;1.38;;;19.90;69.30;;;;;;5078844;28;20047;-44
2021/06/25 07:57:25;;;;;;;1.33;1.23;;;19.90;68.50;;;;;;5101654;28;20480;-41
2021/06/25 07:59:51;;;;;;;1.25;1.15;;;19.90;68.50;;;;;;5099914;28;20044;-44
2021/06/25 08:02:18;;;;;;;1.45;1.35;;;19.90;68.50;;;;;;5114339;28;20047;-44
2021/06/25 08:04:46;;;;;;;1.40;1.30;;;19.90;68.40;;;;;;5112365;28;20039;-42
2021/06/25 08:07:12;;;;;;;1.40;1.30;;;19.80;68.20;;;;;;5113293;28;20079;-45
2021/06/25 08:09:38;;;;;;;1.35;1.25;;;19.90;68.30;;;;;;5112945;28;20082;-47
2021/06/25 08:12:05;;;;;;;1.33;1.23;;;19.90;68.30;;;;;;5113705;28;20473;-43
2021/06/25 08:14:30;;;;;;;0.93;0.93;;;19.90;68.20;;;;;;5113865;28;20051;-43
2021/06/25 08:16:56;;;;;;;1.42;1.33;;;19.90;68.20;;;;;;5113757;28;20054;-42
2021/06/25 08:19:22;;;;;;;1.00;0.90;;;20.00;68.20;;;;;;5113022;28;20054;-45
2021/06/25 08:21:48;;;;;;;1.77;1.10;;;20.00;68.10;;;;;;5113286;28;20096;-44
2021/06/25 08:24:13;;;;;;;1.10;1.00;;;20.00;68.10;;;;;;5112852;28;20507;-45
2021/06/25 08:26:39;;;;;;;0.85;0.85;;;20.00;68.20;;;;;;5112975;28;20044;-47
2021/06/25 08:29:05;;;;;;;0.90;0.90;;;20.00;68.30;;;;;;5113609;28;20130;-49
2021/06/25 08:31:31;;;;;;;1.23;1.00;;;20.00;68.10;;;;;;5113158;28;20040;-37
2021/06/25 08:33:57;;;;;;;1.02;1.00;;;20.00;68.10;;;;;;5113041;28;20055;-49
2021/06/25 08:36:25;;;;;;;1.00;0.90;;;20.00;68.10;;;;;;5113338;28;20039;-42
2021/06/25 08:38:51;;;;;;;1.23;0.82;;;20.10;68.20;;;;;;5112556;28;20040;-46
2021/06/25 08:41:17;;;;;;;0.80;0.80;;;20.00;68.00;;;;;;5112315;28;20142;-44
2021/06/25 08:43:43;;;;;;;0.80;0.80;;;20.10;68.10;;;;;;5112953;28;20502;-45
2021/06/25 08:46:10;;;;;;;0.90;0.90;;;20.10;68.00;;;;;;5113320;28;20035;-44
2021/06/25 08:48:37;;;;;;;0.80;0.80;;;20.10;68.00;;;;;;5112159;28;20395;-45
2021/06/25 08:51:06;;;;;;;0.70;0.70;;;20.10;68.00;;;;;;5112780;28;20130;-45
2021/06/25 08:53:32;;;;;;;0.70;0.70;;;20.20;68.00;;;;;;5113257;28;20086;-42
2021/06/25 08:55:57;;;;;;;1.10;0.98;;;20.10;67.90;;;;;;5111562;28;20510;-43
2021/06/25 08:58:24;;;;;;;0.70;0.70;;;20.10;67.90;;;;;;5113099;28;20126;-43
2021/06/25 09:00:51;;;;;;;0.80;0.80;;;20.20;67.90;;;;;;5112873;28;20578;-44
2021/06/25 09:03:21;;;;;;;0.90;0.90;;;20.20;67.80;;;;;;5111563;28;20486;-43
2021/06/25 09:05:47;;;;;;;0.80;0.80;;;20.20;67.80;;;;;;5112872;28;20043;-42
2021/06/25 09:08:31;;;;;;;0.80;0.80;;;20.20;67.80;;;;;;5112882;28;20036;-41
2021/06/25 09:11:00;;;;;;;1.05;0.95;;;20.20;67.70;;;;;;5111766;28;20048;-40
2021/06/25 09:13:33;;;;;;;0.65;0.65;;;20.20;67.80;;;;;;5112248;28;20437;-42
2021/06/25 09:15:59;;;;;;;0.90;0.90;;;20.20;67.70;;;;;;5112347;28;20050;-45
2021/06/25 09:18:25;;;;;;;0.70;0.70;;;20.20;67.70;;;;;;5111131;28;20117;-43
2021/06/25 09:20:53;;;;;;;0.80;0.80;;;20.20;67.70;;;;;;5112845;28;20051;-45
2021/06/25 09:23:30;;;;;;;0.73;0.73;;;20.20;67.70;;;;;;5110508;28;20123;-43
2021/06/25 09:26:10;;;;;;;0.93;0.80;;;20.20;67.60;;;;;;5111122;28;20672;-45
2021/06/25 09:28:41;;;;;;;0.77;0.73;;;20.20;67.60;;;;;;5103717;28;20043;-44
2021/06/25 09:31:22;;;;;;;0.52;0.52;;;20.30;67.70;;;;;;5092061;28;20048;-40
2021/06/25 09:33:55;;;;;;;0.60;0.60;;;20.30;67.60;;;;;;5090110;28;20060;-43
2021/06/25 09:36:33;;;;;;;0.70;0.70;;;20.30;67.60;;;;;;5104881;28;20097;-39
2021/06/25 09:39:18;;;;;;;0.70;0.70;;;20.30;67.60;;;;;;5110194;28;20085;-42
2021/06/25 09:41:46;;;;;;;0.70;0.70;;;20.30;67.50;;;;;;5110772;28;20047;-40
2021/06/25 09:44:17;;;;;;;1.40;0.90;;;20.30;67.60;;;;;;5111056;28;20051;-43
2021/06/25 09:46:44;;;;;;;0.77;0.60;;;20.30;67.60;;;;;;5091412;28;20131;-43
2021/06/25 09:49:15;;;;;;;0.85;0.80;;;20.30;67.50;;;;;;5091215;28;20052;-43
2021/06/25 09:51:53;;;;;;;0.98;0.90;;;20.30;67.50;;;;;;5107331;28;20044;-43
2021/06/25 09:54:19;;;;;;;0.70;0.70;;;20.30;67.50;;;;;;5111498;28;20070;-45
2021/06/25 10:02:25;;;;;;;0.93;0.90;;;20.30;67.50;;;;;;5115494;28;20044;-42
2021/06/25 10:04:54;;;;;;;0.70;0.70;;;20.30;67.40;;;;;;5115524;28;20063;-46
2021/06/25 10:07:30;;;;;;;0.80;0.80;;;20.30;67.50;;;;;;5115108;28;20090;-44
2021/06/25 10:10:02;;;;;;;0.90;0.90;;;20.40;67.50;;;;;;5114080;28;20043;-45
2021/06/25 10:12:28;;;;;;;0.90;0.90;;;20.30;67.50;;;;;;5113537;28;20039;-38
2021/06/25 10:14:55;;;;;;;0.85;0.80;;;20.30;67.50;;;;;;5115844;28;20051;-41
2021/06/25 10:17:26;;;;;;;0.73;0.73;;;20.30;67.40;;;;;;5113606;28;20048;-44
2021/06/25 10:19:57;;;;;;;0.70;0.70;;;20.30;67.50;;;;;;5114982;28;20411;-48
2021/06/25 10:22:25;;;;;;;0.68;0.65;;;20.40;67.50;;;;;;5115323;28;20079;-37
2021/06/25 10:24:52;;;;;;;0.82;0.82;;;20.40;67.50;;;;;;5114468;28;20124;-40
2021/06/25 10:27:20;;;;;;;0.60;0.60;;;20.40;67.50;;;;;;5113169;28;20066;-46
2021/06/25 10:29:46;;;;;;;10.52;7.63;;;20.40;67.50;;;;;;5114412;28;20043;-40
2021/06/25 10:32:12;;;;;;;11.52;8.55;;;20.40;66.60;;;;;;5114461;28;20067;-35
2021/06/25 10:34:39;;;;;;;11.43;8.35;;;20.50;66.20;;;;;;5114894;28;20172;-43
2021/06/25 10:37:09;;;;;;;11.02;8.30;;;20.60;64.70;;;;;;5114239;28;20052;-38
2021/06/25 10:39:36;;;;;;;11.23;8.70;;;20.80;63.70;;;;;;5114124;28;20117;-41
2021/06/25 10:42:04;;;;;;;12.63;8.70;;;21.00;62.70;;;;;;5113867;28;20491;-48
2021/06/25 10:44:30;;;;;;;12.52;9.00;;;21.20;62.10;;;;;;5115098;28;20047;-43
2021/06/25 10:47:00;;;;;;;13.32;8.88;;;21.40;61.00;;;;;;5114097;28;20054;-43
2021/06/25 10:49:26;;;;;;;12.90;9.07;;;21.50;60.40;;;;;;5115624;28;20043;-47
2021/06/25 10:51:52;;;;;;;15.75;9.07;;;21.60;60.50;;;;;;5114975;28;20406;-43
2021/06/25 10:54:22;;;;;;;12.73;8.63;;;21.60;60.50;;;;;;5114709;28;20055;-46
2021/06/25 10:56:47;;;;;;;10.55;8.15;;;21.60;60.70;;;;;;5115247;28;20044;-43
2021/06/25 10:59:28;;;;;;;12.45;9.00;;;21.50;60.90;;;;;;5114547;28;20048;-41
2021/06/25 11:01:57;;;;;;;18.00;9.50;;;21.50;60.10;;;;;;5095511;28;20055;-48
2021/06/25 11:04:49;;;;;;;14.50;8.68;;;21.60;60.20;;;;;;5111387;28;20047;-48
2021/06/25 11:07:17;;;;;;;12.32;8.77;;;21.50;60.20;;;;;;5095243;28;20118;-50
2021/06/25 11:09:52;;;;;;;13.30;8.85;;;21.50;60.60;;;;;;5094105;28;20079;-46
2021/06/25 11:12:29;;;;;;;11.05;8.43;;;21.40;60.70;;;;;;5095114;28;20048;-44
2021/06/25 11:15:18;;;;;;;9.25;7.60;;;21.40;61.00;;;;;;5094526;28;20503;-42
2021/06/25 11:17:58;;;;;;;11.63;8.00;;;21.40;61.30;;;;;;5094061;28;20158;-48
2021/06/25 11:20:46;;;;;;;9.20;7.45;;;21.30;61.60;;;;;;5094501;28;20059;-44
2021/06/25 11:23:18;;;;;;;10.73;7.05;;;21.30;61.80;;;;;;5095451;28;20128;-43
2021/06/25 11:25:59;;;;;;;11.07;7.25;;;21.20;62.00;;;;;;5110853;28;20456;-43
2021/06/25 11:28:48;;;;;;;9.23;6.55;;;21.20;62.20;;;;;;5102507;28;20499;-45
2021/06/25 11:31:13;;;;;;;9.55;7.00;;;21.20;62.40;;;;;;5106756;28;20598;-44
2021/06/25 11:33:55;;;;;;;9.75;6.60;;;21.10;62.60;;;;;;5114281;28;20119;-39
2021/06/25 11:36:48;;;;;;;9.10;6.55;;;21.10;62.80;;;;;;5110012;28;20048;-40
2021/06/25 11:39:33;;;;;;;7.90;6.70;;;21.10;62.90;;;;;;5102713;28;20040;-36
2021/06/25 11:42:07;;;;;;;7.05;5.95;;;21.10;63.10;;;;;;5093886;28;20113;-44
2021/06/25 11:44:41;;;;;;;8.07;5.82;;;21.00;63.20;;;;;;5113672;28;20120;-39
2021/06/25 11:47:23;;;;;;;11.85;9.00;;;21.00;63.40;;;;;;5113367;28;20052;-43
2021/06/25 11:52:21;;;;;;;12.40;8.75;;;21.10;62.70;;;;;;5113538;28;20058;-40
2021/06/25 11:54:58;;;;;;;12.05;8.48;;;21.20;62.50;;;;;;5113743;28;20459;-41
2021/06/25 11:57:25;;;;;;;10.70;8.65;;;21.10;62.50;;;;;;5113314;28;20115;-46
2021/06/25 12:00:15;;;;;;;10.40;7.97;;;21.20;63.00;;;;;;5113657;28;20562;-45
2021/06/25 12:02:53;;;;;;;12.60;8.60;;;21.20;62.60;;;;;;5113476;28;20055;-44
2021/06/25 12:05:30;;;;;;;10.00;7.82;;;21.10;62.80;;;;;;5112977;28;20069;-43
2021/06/25 12:08:25;;;;;;;9.80;8.02;;;21.20;63.00;;;;;;5114134;28;20046;-43
2021/06/25 12:10:54;;;;;;;14.75;11.90;;;21.10;63.10;;;;;;5049500;28;20480;-42
2021/06/25 12:13:20;;;;;;;16.23;11.07;;;21.20;63.20;;;;;;5050743;28;20045;-43
2021/06/25 12:15:47;;;;;;;16.40;11.60;;;21.20;63.10;;;;;;5050975;28;20064;-46
2021/06/25 12:18:24;;;;;;;13.18;10.68;;;21.20;63.20;;;;;;5049730;28;20563;-42
2021/06/25 12:21:05;;;;;;;13.15;11.07;;;21.20;63.20;;;;;;5030801;28;20057;-44
2021/06/25 12:23:30;;;;;;;13.55;9.95;;;21.30;63.30;;;;;;5031268;28;20044;-38
2021/06/25 12:25:56;;;;;;;12.32;9.30;;;21.20;63.30;;;;;;5047936;28;20497;-43
2021/06/25 12:28:28;;;;;;;13.15;10.10;;;21.20;63.40;;;;;;5048635;28;20581;-43
2021/06/25 12:30:57;;;;;;;12.75;9.63;;;21.10;63.50;;;;;;5048572;28;20064;-39
2021/06/25 12:33:26;;;;;;;15.20;9.43;;;21.10;63.60;;;;;;5046757;28;20087;-42
2021/06/25 12:35:54;;;;;;;11.70;9.90;;;21.20;63.70;;;;;;5047964;28;20132;-38
2021/06/25 12:38:24;;;;;;;11.50;9.00;;;21.20;63.80;;;;;;5049757;28;20045;-44
2021/06/25 12:40:57;;;;;;;10.90;8.80;;;21.10;63.80;;;;;;5048804;28;20498;-39
2021/06/25 12:43:31;;;;;;;10.10;8.50;;;21.10;63.90;;;;;;5049164;28;20103;-39
2021/06/25 12:46:12;;;;;;;10.93;8.35;;;21.10;63.90;;;;;;5049824;28;20082;-38
2021/06/25 12:48:49;;;;;;;9.00;8.05;;;21.10;64.00;;;;;;5072865;28;20084;-39
2021/06/25 12:51:17;;;;;;;10.50;8.32;;;21.10;64.10;;;;;;5101344;28;20059;-44
2021/06/25 12:53:49;;;;;;;10.52;8.65;;;21.10;64.20;;;;;;5111156;28;20040;-38
2021/06/25 12:56:22;;;;;;;10.30;7.40;;;21.10;64.30;;;;;;5111631;28;20070;-41
2021/06/25 12:58:55;;;;;;;8.82;7.55;;;21.00;64.30;;;;;;5112327;28;20096;-41
2021/06/25 13:01:24;;;;;;;8.88;7.05;;;21.00;64.30;;;;;;5092143;28;20048;-43
2021/06/25 13:03:50;;;;;;;9.63;7.70;;;21.00;64.40;;;;;;5090222;28;20051;-41
2021/06/25 13:06:34;;;;;;;9.40;7.80;;;21.00;64.50;;;;;;5091635;28;20059;-44
2021/06/25 13:09:03;;;;;;;8.52;7.57;;;21.00;64.50;;;;;;5090128;28;20052;-42
2021/06/25 13:11:31;;;;;;;8.35;6.88;;;20.90;64.50;;;;;;5090997;28;20040;-38